Herzlich willkommen!

Am freundlichen Bodensee-Flugplatz zwischen Schwarzwald, Rhein und Alpen.

Aktuelles

02.12.2021
Tankstelle
from 21/12/02 100LL not available , until further notice
— Flugleitung EDTZ
10.11.2021
Winterpause
Vom 17.12.21 bis einschließlich 31.01.22 ist am Flugplatz aufgrund Winterpause PPR.
— Flugleitung EDTZ

Persönliches

Live am Platz

Die Bilder unserer Webcams werden alle 5 Minuten aktualisiert.

Sonnenaufgang:

06:50 UTC / 07:50 Lokal

Sonnenuntergang:

15:35 UTC / 16:35 Lokal

METAR (02.12.2021 14:20 UTC):

EDNY 021420Z 26008KT 9999 -RA FEW014 SCT018 OVC022 04/02 Q1000
MVFR

TAF (02.12.2021 11:00 UTC):

TAF EDNY 021100Z 0212/0312 26010KT 9999 FEW010 BKN020 PROB30 TEMPO 0212/0216 4000 SHRASN BKN012TCU BECMG 0217/0219 24005KT PROB30 TEMPO 0218/0304 3000 -SHSN BKN012TCU

Alle Angaben unverbindlich und ohne Gewähr. Zeiten genähert.

Für den Verkehrslandeplatz Konstanz werden keine offiziellen Wetterinformationen ausgegeben. Daher werden zur Orientierung Daten des nahegelegenen Flughafens Friedrichshafen dargestellt.

Das Landeentgelt kann bei uns auch mit aerops bezahlt werden. Die App für's Handy ist kostenfrei erhältlich.